Time;durP1;ratioP1;P1;durP2;ratioP2;P2;SDS_P1;SDS_P2;PMS_P1;PMS_P2;Temp;Humidity;BMP_temperature;BMP_pressure;BME280_temperature;BME280_humidity;BME280_pressure;Samples;Min_cycle;Max_cycle;Signal;HPM_P1;HPM_P2
2023/07/30 00:01:17;;;;;;;3.30;2.40;;;;;;;18.84;73.06;99662.92;110727;1257;22708;-77
2023/07/30 00:03:58;;;;;;;8.50;3.10;;;;;;;18.84;73.13;99664.13;110936;1244;21954;-77
2023/07/30 00:06:35;;;;;;;8.60;3.30;;;;;;;18.84;73.14;99667.54;110761;1257;23691;-77
2023/07/30 00:09:10;;;;;;;4.80;2.80;;;;;;;18.85;73.41;99673.09;110852;1257;23706;-77
2023/07/30 00:11:46;;;;;;;6.10;3.10;;;;;;;18.85;73.45;99674.79;111059;1256;21959;-77
2023/07/30 00:14:24;;;;;;;8.40;3.50;;;;;;;18.86;73.66;99678.61;110989;1256;23048;-77
2023/07/30 00:16:54;;;;;;;5.20;3.00;;;;;;;18.86;73.75;99676.47;110918;1256;23799;-78
2023/07/30 00:19:28;;;;;;;5.00;3.70;;;;;;;18.87;73.87;99685.96;110807;1257;22470;-76
2023/07/30 00:22:24;;;;;;;5.40;3.70;;;;;;;18.89;74.12;99684.58;110902;1257;22444;-78
2023/07/30 00:24:56;;;;;;;6.50;4.30;;;;;;;18.91;74.10;99680.66;110633;1262;22755;-78
2023/07/30 00:27:31;;;;;;;4.50;3.30;;;;;;;18.94;74.14;99678.53;110628;1262;21963;-77
2023/07/30 00:30:05;;;;;;;5.80;3.90;;;;;;;18.97;74.37;99680.36;110375;1262;23809;-77
2023/07/30 00:32:49;;;;;;;8.70;4.10;;;;;;;19.00;74.47;99685.77;110510;1262;21993;-76
2023/07/30 00:35:22;;;;;;;8.20;4.80;;;;;;;19.01;74.31;99692.74;110370;1262;21980;-77
2023/07/30 00:37:57;;;;;;;5.00;4.00;;;;;;;19.00;74.32;99693.16;110380;1262;21996;-77
2023/07/30 00:40:42;;;;;;;7.60;5.00;;;;;;;19.00;74.35;99696.36;110511;1262;22054;-77
2023/07/30 00:43:12;;;;;;;4.50;4.10;;;;;;;18.99;74.39;99697.12;110121;1268;22015;-77
2023/07/30 00:45:50;;;;;;;5.80;4.90;;;;;;;18.94;74.46;99697.41;109776;1268;23744;-76
2023/07/30 00:48:24;;;;;;;5.20;4.30;;;;;;;18.92;74.52;99701.19;109961;1268;21980;-77
2023/07/30 00:51:01;;;;;;;7.10;5.10;;;;;;;18.95;74.50;99710.13;110449;1264;21944;-77
2023/07/30 00:53:37;;;;;;;5.30;3.90;;;;;;;18.95;74.57;99708.40;110388;1264;23700;-78
2023/07/30 00:56:14;;;;;;;8.10;4.60;;;;;;;18.96;74.60;99705.51;110493;1264;23812;-77
2023/07/30 00:58:49;;;;;;;5.40;4.10;;;;;;;18.96;74.80;99710.71;110510;1264;21969;-77
2023/07/30 01:01:29;;;;;;;;;;;;;;;18.96;74.54;99715.20;109985;1269;21973;-77
2023/07/30 01:04:02;;;;;;;6.90;4.70;;;;;;;18.84;74.90;99714.77;109173;1273;22082;-78
2023/07/30 01:06:41;;;;;;;4.70;3.70;;;;;;;18.87;74.88;99711.89;109170;1265;22454;-77
2023/07/30 01:09:16;;;;;;;5.50;3.60;;;;;;;18.90;74.88;99711.75;109562;1272;22080;-78
2023/07/30 01:12:11;;;;;;;5.80;4.00;;;;;;;18.93;74.87;99716.31;109349;1273;22058;-78
2023/07/30 01:14:41;;;;;;;9.20;4.40;;;;;;;18.94;74.80;99722.54;109356;1273;22953;-78
2023/07/30 01:17:31;;;;;;;;;;;;;;;;;;;;;
2023/07/30 01:20:02;;;;;;;5.40;4.70;;;;;;;18.97;74.68;99726.52;109846;1268;21978;-77
2023/07/30 01:22:37;;;;;;;5.70;4.50;;;;;;;18.96;74.49;99721.66;110207;1262;21965;-78
2023/07/30 01:25:09;;;;;;;7.90;4.30;;;;;;;18.96;74.39;99724.73;109890;1268;23733;-78
2023/07/30 01:27:51;;;;;;;5.40;4.70;;;;;;;18.96;74.40;99726.97;110276;1263;21988;-76
2023/07/30 01:30:41;;;;;;;7.10;3.90;;;;;;;18.97;74.46;99729.92;109994;1268;21984;-77
2023/07/30 01:33:15;;;;;;;8.50;4.60;;;;;;;18.99;74.38;99732.25;109762;1269;22202;-76
2023/07/30 01:35:53;;;;;;;7.60;4.00;;;;;;;19.01;74.15;99734.54;109739;1265;21973;-77
2023/07/30 01:38:32;;;;;;;6.50;3.50;;;;;;;18.98;74.20;99738.64;109240;1274;21979;-78
2023/07/30 01:41:05;;;;;;;5.80;3.40;;;;;;;18.98;74.17;99743.22;109095;1276;21991;-78
2023/07/30 01:43:48;;;;;;;6.00;3.30;;;;;;;18.96;74.05;99746.88;109501;1270;23753;-79
2023/07/30 01:46:24;;;;;;;4.80;3.40;;;;;;;18.94;74.00;99744.61;109805;1269;21988;-78
2023/07/30 01:48:57;;;;;;;5.90;3.10;;;;;;;18.94;74.01;99746.20;109434;1268;23703;-78
2023/07/30 01:51:34;;;;;;;7.40;3.40;;;;;;;18.96;74.09;99742.84;109816;1268;23735;-79
2023/07/30 01:54:12;;;;;;;7.30;4.30;;;;;;;18.98;74.08;99738.66;109592;1268;21972;-77
2023/07/30 01:57:13;;;;;;;7.40;4.50;;;;;;;18.96;73.77;99732.12;109504;1269;24137;-78
2023/07/30 01:59:57;;;;;;;6.20;3.50;;;;;;;18.88;73.59;99742.46;109850;1268;21977;-80
2023/07/30 02:02:43;;;;;;;5.90;3.60;;;;;;;18.81;73.43;99743.20;110071;1263;22900;-79
2023/07/30 02:05:15;;;;;;;8.30;4.80;;;;;;;18.79;73.66;99747.58;110556;1263;21973;-78
2023/07/30 02:07:59;;;;;;;8.20;4.90;;;;;;;18.75;73.53;99747.35;110774;1256;22164;-78
2023/07/30 02:10:59;;;;;;;8.00;4.10;;;;;;;18.73;73.61;99748.25;111249;1256;21982;-79
2023/07/30 02:13:36;;;;;;;9.90;5.00;;;;;;;18.71;73.61;99746.93;110796;1256;23020;-81
2023/07/30 02:16:44;;;;;;;8.90;4.80;;;;;;;18.68;73.59;99742.48;111170;1256;22222;-80
2023/07/30 02:19:17;;;;;;;9.00;5.70;;;;;;;18.67;73.67;99743.09;110971;1256;23029;-80
2023/07/30 02:21:50;;;;;;;7.30;4.60;;;;;;;18.66;73.66;99740.52;110844;1256;22124;-78
2023/07/30 02:24:23;;;;;;;5.20;4.80;;;;;;;18.61;73.64;99731.40;110986;1256;22033;-80
2023/07/30 02:26:53;;;;;;;6.50;4.80;;;;;;;18.59;73.58;99727.48;110921;1256;21999;-78
2023/07/30 02:29:27;;;;;;;7.30;5.20;;;;;;;18.63;73.54;99736.15;110728;1261;21991;-78
2023/07/30 02:32:09;;;;;;;8.30;5.60;;;;;;;18.60;73.50;99735.86;110488;1261;21985;-78
2023/07/30 02:34:51;;;;;;;5.90;5.30;;;;;;;18.57;73.51;99734.50;110475;1261;22027;-79
2023/07/30 02:37:24;;;;;;;8.90;5.40;;;;;;;18.56;73.44;99736.94;110680;1257;22052;-79
2023/07/30 02:40:04;;;;;;;7.60;5.10;;;;;;;18.55;73.51;99741.91;110691;1261;22973;-79
2023/07/30 02:42:42;;;;;;;9.90;5.50;;;;;;;18.51;73.43;99748.59;110135;1266;23071;-78
2023/07/30 02:45:32;;;;;;;10.40;5.60;;;;;;;18.47;73.42;99743.05;110166;1266;21990;-79
2023/07/30 02:48:18;;;;;;;6.90;5.70;;;;;;;18.46;73.43;99746.02;109809;1266;21973;-78
2023/07/30 02:51:18;;;;;;;7.70;5.30;;;;;;;18.41;73.45;99746.07;110162;1266;23066;-78
2023/07/30 02:54:10;;;;;;;7.40;6.60;;;;;;;18.40;73.67;99747.20;110247;1262;21971;-79
2023/07/30 02:56:45;;;;;;;9.30;7.70;;;;;;;18.43;73.77;99745.15;110663;1262;23091;-77
2023/07/30 02:59:21;;;;;;;7.70;6.70;;;;;;;18.49;73.73;99749.39;110173;1262;23693;-77
2023/07/30 03:02:07;;;;;;;9.10;6.40;;;;;;;18.50;73.66;99752.54;110627;1262;21972;-75
2023/07/30 03:04:46;;;;;;;7.60;6.60;;;;;;;18.52;73.65;99756.81;110560;1262;21970;-78
2023/07/30 03:07:31;;;;;;;11.00;6.80;;;;;;;18.52;73.63;99759.59;110039;1263;23588;-78
2023/07/30 03:10:18;;;;;;;7.50;6.70;;;;;;;18.52;73.53;99762.44;109793;1266;22278;-78
2023/07/30 03:12:49;;;;;;;8.70;7.70;;;;;;;18.50;73.43;99760.48;109846;1268;22502;-78
2023/07/30 03:15:32;;;;;;;9.40;7.20;;;;;;;18.48;73.37;99755.34;109767;1265;21993;-77
2023/07/30 03:18:06;;;;;;;8.40;7.00;;;;;;;18.47;73.40;99755.98;109784;1255;21981;-79
2023/07/30 03:20:47;;;;;;;8.70;7.60;;;;;;;18.44;73.40;99760.61;109979;1268;21963;-77
2023/07/30 03:23:27;;;;;;;8.90;8.10;;;;;;;18.44;73.55;99760.82;109734;1268;21975;-78
2023/07/30 03:26:00;;;;;;;9.10;8.20;;;;;;;18.44;73.44;99761.85;109783;1265;21959;-79
2023/07/30 03:28:38;;;;;;;11.40;8.90;;;;;;;18.44;73.47;99758.63;110744;1262;22128;-79
2023/07/30 03:31:12;;;;;;;10.00;8.60;;;;;;;18.43;73.35;99755.23;110609;1262;23048;-77
2023/07/30 03:34:04;;;;;;;9.30;8.50;;;;;;;18.40;73.36;99758.30;109974;1268;22329;-78
2023/07/30 03:36:54;;;;;;;13.10;9.80;;;;;;;18.35;73.17;99762.14;109826;1267;22074;-80
2023/07/30 03:42:45;;;;;;;11.80;8.80;;;;;;;18.29;73.51;99778.48;109883;1268;23613;-77
2023/07/30 03:45:29;;;;;;;9.40;8.50;;;;;;;18.32;73.56;99779.55;109826;1268;21985;-78
2023/07/30 03:48:17;;;;;;;10.00;9.10;;;;;;;18.31;73.43;99785.38;109754;1268;22195;-78
2023/07/30 03:51:16;;;;;;;10.40;9.50;;;;;;;18.29;73.53;99786.96;110426;1256;23704;-78
2023/07/30 03:53:50;;;;;;;10.10;9.10;;;;;;;18.29;73.47;99792.78;110854;1256;21956;-77
2023/07/30 03:56:20;;;;;;;10.00;9.20;;;;;;;18.30;73.40;99800.11;110902;1256;21960;-76
2023/07/30 03:58:50;;;;;;;11.50;9.10;;;;;;;18.30;73.40;99806.29;111080;1256;21957;-79
2023/07/30 04:01:24;;;;;;;10.90;9.80;;;;;;;18.31;73.42;99812.02;111131;1256;21977;-79
2023/07/30 04:04:11;;;;;;;11.90;9.70;;;;;;;18.30;73.39;99814.18;110906;1256;22725;-79
2023/07/30 04:06:54;;;;;;;12.40;10.40;;;;;;;18.28;73.48;99809.61;110956;1256;23325;-77
2023/07/30 04:09:42;;;;;;;12.80;9.60;;;;;;;18.27;73.62;99808.06;110942;1250;23094;-78
2023/07/30 04:12:23;;;;;;;11.40;10.30;;;;;;;18.29;73.70;99808.80;110946;1256;23507;-77
2023/07/30 04:15:10;;;;;;;12.60;10.90;;;;;;;18.30;73.60;99811.38;110720;1262;22095;-78
2023/07/30 04:17:46;;;;;;;11.60;10.30;;;;;;;18.31;73.50;99814.28;110648;1262;21959;-77
2023/07/30 04:20:31;;;;;;;11.80;10.80;;;;;;;18.30;73.48;99820.02;110111;1268;23676;-78
2023/07/30 04:23:10;;;;;;;11.30;10.30;;;;;;;18.29;73.52;99817.59;109953;1268;23040;-78
2023/07/30 04:25:56;;;;;;;12.00;10.20;;;;;;;18.31;73.53;99823.84;110099;1268;23696;-77
2023/07/30 04:28:32;;;;;;;12.50;11.30;;;;;;;18.31;73.69;99822.92;110134;1268;22014;-77
2023/07/30 04:31:05;;;;;;;13.80;11.80;;;;;;;18.34;73.66;99824.29;109932;1266;22192;-76
2023/07/30 04:33:58;;;;;;;13.10;12.00;;;;;;;18.34;73.62;99831.30;110256;1264;22440;-78
2023/07/30 04:36:43;;;;;;;13.70;11.80;;;;;;;18.36;73.80;99839.30;110484;1263;23087;-78
2023/07/30 04:39:24;;;;;;;14.30;11.80;;;;;;;18.35;73.71;99839.71;110735;1257;21970;-77
2023/07/30 04:42:08;;;;;;;13.10;10.50;;;;;;;18.37;73.88;99835.83;110382;1263;21983;-77
2023/07/30 04:44:44;;;;;;;11.80;10.70;;;;;;;18.42;73.87;99831.92;110484;1263;21970;-77
2023/07/30 04:47:34;;;;;;;14.40;10.70;;;;;;;18.46;73.83;99830.39;110256;1263;21989;-76
2023/07/30 04:50:16;;;;;;;13.90;11.60;;;;;;;18.51;73.76;99829.94;110553;1263;21966;-80
2023/07/30 04:53:06;;;;;;;13.10;10.90;;;;;;;18.58;73.85;99833.66;110501;1263;24291;-78
2023/07/30 04:56:06;;;;;;;12.30;9.90;;;;;;;18.63;73.69;99834.16;110469;1263;22443;-78
2023/07/30 04:59:03;;;;;;;16.90;10.10;;;;;;;18.68;73.62;99828.80;110582;1263;23736;-78
2023/07/30 05:01:38;;;;;;;15.30;9.50;;;;;;;18.74;73.49;99830.94;110854;1257;21957;-77
2023/07/30 05:04:26;;;;;;;14.20;10.60;;;;;;;18.83;73.56;99837.13;110943;1257;23673;-77
2023/07/30 05:07:19;;;;;;;11.30;10.10;;;;;;;18.90;73.28;99840.30;110896;1257;21990;-77
2023/07/30 05:09:51;;;;;;;11.40;9.50;;;;;;;18.95;73.11;99840.41;110952;1257;21968;-76
2023/07/30 05:12:38;;;;;;;12.80;10.40;;;;;;;18.99;72.84;99838.38;110453;1262;21998;-77
2023/07/30 05:15:34;;;;;;;12.50;10.30;;;;;;;19.03;72.79;99839.08;110575;1261;21976;-76
2023/07/30 05:18:20;;;;;;;;;;;;;;;;;;;;;
2023/07/30 05:21:07;;;;;;;11.90;10.00;;;;;;;19.20;72.53;99841.27;110010;1267;21956;-77
2023/07/30 05:23:49;;;;;;;16.60;10.40;;;;;;;19.27;72.39;99835.20;109834;1267;23101;-78
2023/07/30 05:26:32;;;;;;;10.50;9.70;;;;;;;19.34;72.07;99836.89;109333;1272;21977;-79
2023/07/30 05:29:12;;;;;;;16.80;12.30;;;;;;;19.45;71.95;99840.20;109497;1272;21972;-78
2023/07/30 05:32:02;;;;;;;9.40;8.50;;;;;;;19.54;71.83;99837.17;109084;1275;21979;-75
2023/07/30 05:35:04;;;;;;;10.50;9.60;;;;;;;19.61;71.64;99832.69;108908;1277;22150;-79
2023/07/30 05:38:26;;;;;;;;;;;;;;;;;;;;;
2023/07/30 05:41:25;;;;;;;13.70;12.40;;;;;;;20.06;71.62;99832.80;109011;1274;22752;-78
2023/07/30 05:44:17;;;;;;;13.90;12.50;;;;;;;20.17;70.54;99837.88;109195;1271;23071;-77
2023/07/30 05:47:23;;;;;;;12.60;11.40;;;;;;;20.29;69.97;99836.92;108900;1276;23698;-78
2023/07/30 05:50:14;;;;;;;12.60;11.10;;;;;;;20.34;69.07;99835.59;108597;1281;22647;-79
2023/07/30 05:53:18;;;;;;;11.60;10.40;;;;;;;20.37;68.76;99838.63;108679;1278;21980;-77
2023/07/30 05:56:13;;;;;;;11.80;9.80;;;;;;;20.42;68.69;99839.31;108680;1278;24475;-78
2023/07/30 05:58:58;;;;;;;10.70;9.00;;;;;;;20.42;68.06;99841.92;108515;1280;21992;-78
2023/07/30 06:02:10;;;;;;;11.80;10.60;;;;;;;20.47;68.37;99836.73;108522;1282;21994;-77
2023/07/30 06:05:27;;;;;;;10.40;9.50;;;;;;;20.52;68.04;99837.70;108694;1280;23644;-76
2023/07/30 06:08:33;;;;;;;10.40;9.30;;;;;;;20.49;67.53;99840.12;108748;1277;22198;-77
2023/07/30 06:11:37;;;;;;;11.10;8.80;;;;;;;20.43;67.46;99839.21;108909;1279;22035;-77
2023/07/30 06:15:13;;;;;;;8.90;7.90;;;;;;;20.39;67.22;99840.77;108969;1279;22008;-83
2023/07/30 06:18:11;;;;;;;8.70;7.40;;;;;;;20.37;67.66;99839.52;109401;1274;23061;-84
2023/07/30 06:20:50;;;;;;;10.60;7.00;;;;;;;20.46;68.03;99841.39;109448;1274;23567;-83
2023/07/30 06:23:30;;;;;;;8.60;6.80;;;;;;;20.55;67.63;99843.25;109330;1278;22006;-82
2023/07/30 06:26:18;;;;;;;8.30;7.40;;;;;;;20.55;67.35;99839.41;109129;1278;22043;-83
2023/07/30 06:28:52;;;;;;;10.40;6.70;;;;;;;20.62;67.53;99836.31;109317;1271;22245;-80
2023/07/30 06:31:35;;;;;;;8.20;7.40;;;;;;;20.77;67.58;99832.02;109248;1275;21986;-80
2023/07/30 06:34:40;;;;;;;;;;;;;;;;;;;;;
2023/07/30 06:37:17;;;;;;;11.20;7.40;;;;;;;20.92;66.80;99850.95;109743;1269;21993;-84
2023/07/30 06:39:57;;;;;;;13.90;7.20;;;;;;;21.01;66.66;99853.70;110015;1269;23721;-83
2023/07/30 06:42:58;;;;;;;20.90;7.30;;;;;;;21.08;66.23;99858.46;110759;1263;21990;-79
2023/07/30 06:45:57;;;;;;;9.20;7.20;;;;;;;21.09;65.51;99854.45;110546;1255;23055;-80
2023/07/30 06:48:59;;;;;;;;;;;;;;;;;;;;;
2023/07/30 06:51:48;;;;;;;7.50;6.40;;;;;;;21.11;65.83;99871.04;111228;1256;22893;-79
2023/07/30 06:54:22;;;;;;;10.20;6.10;;;;;;;21.26;65.69;99878.08;111165;1256;22055;-78
2023/07/30 06:57:01;;;;;;;8.10;5.40;;;;;;;21.51;66.41;99880.80;111163;1256;21973;-79
2023/07/30 06:59:38;;;;;;;6.40;5.70;;;;;;;21.90;66.10;99876.65;110999;1256;22105;-79
2023/07/30 07:02:10;;;;;;;7.20;5.00;;;;;;;22.19;64.64;99874.98;111314;1256;21963;-78
2023/07/30 07:04:44;;;;;;;6.10;5.50;;;;;;;22.35;63.53;99873.73;111077;1256;21989;-78
2023/07/30 07:07:22;;;;;;;7.50;5.20;;;;;;;22.50;63.05;99874.29;110923;1256;22805;-79
2023/07/30 07:10:00;;;;;;;9.40;6.60;;;;;;;22.87;63.95;99876.23;111087;1256;22066;-79
2023/07/30 07:12:32;;;;;;;7.90;4.80;;;;;;;23.36;63.27;99876.05;111097;1256;23596;-78
2023/07/30 07:15:06;;;;;;;8.90;4.40;;;;;;;23.92;62.61;99882.55;110935;1256;21962;-79
2023/07/30 07:17:45;;;;;;;4.70;3.80;;;;;;;24.57;60.98;99883.06;111038;1256;23737;-79
2023/07/30 07:20:18;;;;;;;6.80;4.60;;;;;;;25.05;58.85;99881.44;110867;1256;21975;-79
2023/07/30 07:22:52;;;;;;;5.80;3.90;;;;;;;25.19;56.50;99872.41;110934;1256;23014;-79
2023/07/30 07:25:25;;;;;;;3.50;3.20;;;;;;;25.21;55.12;99881.15;110930;1256;23002;-80
2023/07/30 07:28:02;;;;;;;5.30;3.70;;;;;;;25.10;55.16;99882.65;111391;1256;21986;-79
2023/07/30 07:30:36;;;;;;;5.90;3.90;;;;;;;25.03;55.21;99884.98;111228;1257;22411;-82
2023/07/30 07:33:09;;;;;;;4.50;3.50;;;;;;;25.09;56.04;99885.73;111273;1257;23043;-82
2023/07/30 07:35:43;;;;;;;7.90;3.80;;;;;;;25.58;56.92;99881.02;111070;1257;23720;-84
2023/07/30 07:38:14;;;;;;;4.30;3.80;;;;;;;26.10;55.29;99878.77;111127;1257;22986;-83
2023/07/30 07:40:59;;;;;;;4.60;4.00;;;;;;;26.58;53.72;99878.66;111301;1257;21980;-82
2023/07/30 07:43:36;;;;;;;6.50;3.50;;;;;;;26.91;52.55;99877.92;111197;1257;21952;-80
2023/07/30 07:46:13;;;;;;;6.00;3.40;;;;;;;27.31;52.47;99877.52;111168;1257;21979;-82
2023/07/30 07:48:52;;;;;;;6.40;2.80;;;;;;;27.70;50.93;99872.20;111119;1254;22969;-81
2023/07/30 07:51:29;;;;;;;5.30;3.50;;;;;;;27.84;49.00;99869.30;111312;1257;21943;-82
2023/07/30 07:54:07;;;;;;;3.90;3.30;;;;;;;27.68;48.00;99865.82;111242;1257;22167;-83
2023/07/30 07:56:53;;;;;;;5.40;3.10;;;;;;;27.59;48.83;99862.81;110764;1262;22997;-82
2023/07/30 07:59:29;;;;;;;6.20;3.30;;;;;;;27.84;49.76;99863.27;109956;1267;23700;-81
2023/07/30 08:01:59;;;;;;;12.80;3.40;;;;;;;28.17;49.19;99863.08;110102;1268;23031;-81
2023/07/30 08:04:34;;;;;;;6.20;3.30;;;;;;;28.38;48.13;99858.46;109870;1268;22727;-80
2023/07/30 08:07:14;;;;;;;7.60;3.30;;;;;;;28.62;47.80;99861.69;110250;1268;22038;-80
2023/07/30 08:09:58;;;;;;;6.50;4.10;;;;;;;28.83;46.70;99866.45;109572;1274;22009;-83
2023/07/30 08:12:32;;;;;;;4.20;3.40;;;;;;;28.95;46.46;99864.23;109557;1274;22061;-83
2023/07/30 08:15:05;;;;;;;4.80;3.10;;;;;;;29.27;46.20;99865.88;109798;1269;22746;-82
2023/07/30 08:17:38;;;;;;;6.00;2.70;;;;;;;29.54;45.42;99864.23;110201;1263;22020;-81
2023/07/30 08:20:14;;;;;;;5.20;3.10;;;;;;;29.89;44.69;99861.97;110766;1263;21971;-82
2023/07/30 08:22:58;;;;;;;5.10;3.00;;;;;;;30.22;44.15;99863.59;110171;1268;23654;-81
2023/07/30 08:25:36;;;;;;;5.10;3.30;;;;;;;30.51;43.34;99868.33;110268;1267;21994;-81
2023/07/30 08:28:09;;;;;;;5.90;2.80;;;;;;;30.67;41.76;99866.70;110029;1267;21991;-79
2023/07/30 08:31:04;;;;;;;;;;;;;;;;;;;;;
2023/07/30 08:34:34;;;;;;;4.00;2.60;;;;;;;30.78;41.87;99870.84;110126;1267;23147;-81
2023/07/30 08:37:19;;;;;;;3.40;2.20;;;;;;;30.95;40.95;99870.27;109761;1270;22991;-85
2023/07/30 08:40:23;;;;;;;6.70;3.40;;;;;;;31.07;40.43;99871.59;109411;1276;22263;-82
2023/07/30 08:43:25;;;;;;;6.70;2.50;;;;;;;31.14;40.01;99859.42;109308;1276;21979;-81
2023/07/30 08:46:05;;;;;;;4.90;2.40;;;;;;;31.19;39.81;99865.67;109251;1272;22188;-81
2023/07/30 08:48:44;;;;;;;4.40;2.30;;;;;;;31.20;39.73;99868.16;109513;1271;23807;-81
2023/07/30 08:51:25;;;;;;;3.40;2.20;;;;;;;31.28;38.93;99863.54;109650;1271;21984;-83
2023/07/30 08:54:00;;;;;;;3.10;2.30;;;;;;;31.37;38.61;99864.70;109334;1276;23762;-82
2023/07/30 08:56:35;;;;;;;4.50;2.20;;;;;;;31.43;38.50;99866.30;109271;1276;22001;-81
2023/07/30 08:59:08;;;;;;;3.10;2.00;;;;;;;31.45;38.34;99866.02;109268;1266;23108;-78
2023/07/30 09:01:51;;;;;;;5.40;2.30;;;;;;;31.51;38.23;99867.82;109251;1273;21943;-78
2023/07/30 09:04:34;;;;;;;5.10;2.30;;;;;;;31.67;38.31;99870.61;109536;1273;22218;-80
2023/07/30 09:07:09;;;;;;;9.50;2.90;;;;;;;31.78;37.55;99869.90;109354;1272;21991;-80
2023/07/30 09:09:51;;;;;;;5.30;2.50;;;;;;;31.82;37.88;99869.05;109634;1272;22263;-79
2023/07/30 09:12:36;;;;;;;7.30;2.30;;;;;;;31.86;37.28;99873.20;110308;1262;21962;-81
2023/07/30 09:15:10;;;;;;;4.30;2.30;;;;;;;31.66;37.02;99870.48;110251;1267;21972;-79
2023/07/30 09:17:57;;;;;;;6.10;3.60;;;;;;;31.33;37.33;99867.94;109619;1271;22288;-78
2023/07/30 09:20:44;;;;;;;5.10;2.80;;;;;;;31.20;37.93;99864.39;109726;1271;24510;-82
2023/07/30 09:23:51;;;;;;;4.50;2.80;;;;;;;31.17;37.49;99866.67;109781;1271;23775;-83
2023/07/30 09:27:08;;;;;;;7.60;2.30;;;;;;;31.37;37.75;99868.70;109643;1272;23612;-83
2023/07/30 09:36:22;;;;;;;3.00;2.00;;;;;;;31.63;36.90;99866.95;109679;1271;21978;-82
2023/07/30 09:41:11;;;;;;;2.40;1.70;;;;;;;31.66;36.18;99864.01;109401;1275;22005;-80
2023/07/30 10:03:22;;;;;;;;;;;;;;;;;;;;;
2023/07/30 10:06:28;;;;;;;2.60;1.40;;;;;;;31.86;33.77;99837.84;108991;1280;21995;-80
2023/07/30 10:09:09;;;;;;;2.90;1.90;;;;;;;32.02;33.87;99833.14;109017;1280;22051;-80
2023/07/30 10:11:50;;;;;;;2.30;1.50;;;;;;;32.11;32.95;99835.20;109038;1280;22006;-81
2023/07/30 10:17:23;;;;;;;4.40;3.60;;;;;;;32.21;32.82;99830.61;108041;1290;22756;-79
2023/07/30 10:19:50;;;;;;;2.40;1.40;;;;;;;32.24;32.69;99826.71;108000;1290;23116;-82
2023/07/30 10:22:28;;;;;;;2.30;1.30;;;;;;;32.31;32.35;99819.95;108232;1290;23075;-79
2023/07/30 10:25:07;;;;;;;3.70;1.40;;;;;;;32.38;32.20;99816.38;108701;1285;21997;-81
2023/07/30 10:27:43;;;;;;;2.20;1.60;;;;;;;32.27;31.62;99813.89;108483;1286;22006;-78
2023/07/30 10:30:14;;;;;;;2.80;1.50;;;;;;;31.95;32.57;99815.00;108246;1286;23791;-80
2023/07/30 10:32:58;;;;;;;2.90;1.50;;;;;;;31.89;32.80;99810.85;108607;1280;22008;-79
2023/07/30 10:35:48;;;;;;;8.20;1.40;;;;;;;31.91;32.67;99811.27;108775;1283;21729;-79
2023/07/30 10:38:35;;;;;;;1.80;1.10;;;;;;;31.90;32.45;99813.20;108843;1277;21984;-80
2023/07/30 10:41:17;;;;;;;1.90;1.00;;;;;;;31.80;32.16;99811.95;109189;1277;21982;-78
2023/07/30 10:43:51;;;;;;;1.80;1.10;;;;;;;31.59;32.13;99813.92;109329;1274;22001;-84
2023/07/30 10:46:24;;;;;;;3.50;1.30;;;;;;;31.47;32.63;99816.83;109346;1274;21970;-80
2023/07/30 10:48:55;;;;;;;4.60;2.20;;;;;;;31.27;32.36;99812.89;109293;1273;23736;-82
2023/07/30 10:51:25;;;;;;;4.00;1.30;;;;;;;31.06;32.81;99806.85;109351;1273;23602;-80
2023/07/30 10:53:59;;;;;;;2.80;1.40;;;;;;;30.81;32.75;99804.51;109032;1265;21967;-80
2023/07/30 10:56:29;;;;;;;5.20;2.40;;;;;;;30.65;33.18;99810.63;110115;1265;21984;-79
2023/07/30 10:59:08;;;;;;;4.70;1.80;;;;;;;30.43;33.12;99807.77;110289;1266;21962;-78
2023/07/30 11:01:43;;;;;;;1.80;1.50;;;;;;;30.20;33.64;99800.44;109902;1266;23603;-79
2023/07/30 11:04:21;;;;;;;2.90;1.50;;;;;;;30.11;33.97;99802.17;110113;1265;21991;-80
2023/07/30 11:06:55;;;;;;;2.80;1.30;;;;;;;29.96;33.97;99800.91;109449;1272;21989;-80
2023/07/30 11:09:28;;;;;;;1.90;1.40;;;;;;;29.80;34.14;99794.61;109754;1272;23056;-79
2023/07/30 11:12:11;;;;;;;4.90;1.50;;;;;;;29.66;34.79;99797.48;109165;1274;23079;-79
2023/07/30 11:15:05;;;;;;;1.60;1.30;;;;;;;29.61;34.96;99798.52;109386;1274;24423;-79
2023/07/30 11:18:02;;;;;;;;;;;;;;;;;;;;;
2023/07/30 11:20:36;;;;;;;1.50;1.40;;;;;;;29.54;34.83;99792.17;109841;1270;22246;-79
2023/07/30 11:23:27;;;;;;;2.20;1.70;;;;;;;29.48;34.99;99801.59;109626;1270;21978;-80
2023/07/30 11:26:11;;;;;;;6.00;1.50;;;;;;;29.37;35.13;99803.54;110052;1264;23510;-80
2023/07/30 11:28:45;;;;;;;3.10;1.40;;;;;;;29.19;34.80;99801.98;110454;1264;21982;-78
2023/07/30 11:31:26;;;;;;;3.20;1.40;;;;;;;29.04;35.22;99792.37;110230;1266;21983;-79
2023/07/30 11:34:06;;;;;;;3.80;1.00;;;;;;;29.01;35.44;99787.88;109923;1266;22296;-79
2023/07/30 11:36:40;;;;;;;3.60;1.40;;;;;;;29.02;35.38;99792.30;109413;1269;23623;-78
2023/07/30 11:39:13;;;;;;;5.30;1.80;;;;;;;29.06;35.27;99792.55;109077;1274;22078;-79
2023/07/30 11:41:43;;;;;;;3.30;1.70;;;;;;;29.08;35.24;99794.98;109215;1274;22032;-79
2023/07/30 11:44:42;;;;;;;2.60;1.20;;;;;;;29.12;35.57;99788.51;109076;1274;21991;-79
2023/07/30 11:47:22;;;;;;;1.60;1.10;;;;;;;29.18;35.30;99793.02;108992;1279;21983;-79
2023/07/30 11:49:58;;;;;;;2.90;1.50;;;;;;;29.18;35.14;99791.41;108827;1276;21989;-79
2023/07/30 11:52:35;;;;;;;1.70;1.20;;;;;;;29.20;35.20;99784.28;109306;1276;23055;-80
2023/07/30 11:55:14;;;;;;;1.80;1.20;;;;;;;29.20;34.50;99784.29;109210;1270;22734;-79
2023/07/30 11:57:46;;;;;;;2.10;1.20;;;;;;;29.17;34.44;99789.55;110101;1265;21978;-80
2023/07/30 12:00:27;;;;;;;2.80;1.30;;;;;;;29.12;34.46;99795.89;110050;1265;21991;-81
2023/07/30 12:03:10;;;;;;;3.10;1.50;;;;;;;29.04;34.59;99787.34;110167;1265;21964;-80
2023/07/30 12:05:41;;;;;;;2.30;1.00;;;;;;;29.00;34.88;99786.35;109694;1266;21978;-80
2023/07/30 12:08:17;;;;;;;3.60;1.00;;;;;;;28.99;34.84;99779.05;110592;1266;23706;-79
2023/07/30 12:10:55;;;;;;;1.90;1.00;;;;;;;28.95;34.97;99775.99;109533;1271;22094;-79
2023/07/30 12:13:29;;;;;;;1.70;1.30;;;;;;;28.91;35.07;99771.66;109450;1271;23065;-81
2023/07/30 12:16:04;;;;;;;2.60;1.40;;;;;;;28.88;35.13;99771.14;109496;1271;21975;-79
2023/07/30 12:18:43;;;;;;;1.40;1.00;;;;;;;28.83;35.04;99778.48;109665;1271;23833;-79
2023/07/30 12:21:18;;;;;;;3.00;1.30;;;;;;;28.83;35.13;99780.51;109461;1271;21998;-80
2023/07/30 12:23:54;;;;;;;1.50;1.10;;;;;;;28.85;35.13;99780.36;109605;1271;21973;-79
2023/07/30 12:26:26;;;;;;;3.50;1.00;;;;;;;28.84;35.10;99776.06;108945;1276;22058;-79
2023/07/30 12:29:00;;;;;;;3.10;2.80;;;;;;;28.84;35.10;99773.66;109395;1272;22009;-78
2023/07/30 12:31:46;;;;;;;4.10;2.00;;;;;;;28.87;35.16;99770.34;110237;1266;22942;-80
2023/07/30 12:34:23;;;;;;;2.20;1.40;;;;;;;28.90;35.17;99768.02;110308;1265;23710;-80
2023/07/30 12:36:56;;;;;;;1.60;1.00;;;;;;;28.90;35.25;99769.18;109748;1265;22004;-79
2023/07/30 12:39:27;;;;;;;2.20;1.20;;;;;;;28.88;35.26;99766.13;110625;1262;21990;-81
2023/07/30 12:41:59;;;;;;;1.20;1.10;;;;;;;28.83;35.11;99765.67;110060;1266;23659;-81
2023/07/30 12:44:28;;;;;;;2.00;1.40;;;;;;;28.84;35.40;99763.73;110390;1262;21990;-80
2023/07/30 12:47:17;;;;;;;3.40;1.10;;;;;;;28.90;35.48;99759.89;110604;1262;21953;-80
2023/07/30 12:49:49;;;;;;;5.20;1.10;;;;;;;28.96;35.48;99761.80;110878;1262;22234;-81
2023/07/30 12:52:24;;;;;;;3.50;0.90;;;;;;;28.91;35.15;99761.58;110706;1262;22052;-81
2023/07/30 12:54:54;;;;;;;2.60;1.00;;;;;;;28.80;35.14;99758.78;110183;1266;23753;-77
2023/07/30 12:57:29;;;;;;;1.70;1.00;;;;;;;28.67;35.07;99757.42;109868;1268;21976;-79
2023/07/30 13:00:04;;;;;;;1.90;1.20;;;;;;;28.56;35.25;99756.95;109912;1261;21970;-78
2023/07/30 13:02:41;;;;;;;1.90;1.00;;;;;;;28.49;35.58;99753.81;110488;1261;23700;-80
2023/07/30 13:05:15;;;;;;;1.30;0.80;;;;;;;28.43;35.65;99754.46;110605;1261;23676;-81
2023/07/30 13:07:50;;;;;;;1.90;1.00;;;;;;;28.36;35.91;99756.13;110290;1266;22381;-80
2023/07/30 13:10:20;;;;;;;3.10;1.40;;;;;;;28.35;36.07;99757.71;109323;1272;23735;-78
2023/07/30 13:12:56;;;;;;;2.00;1.60;;;;;;;28.35;36.02;99761.94;109329;1272;22732;-79
2023/07/30 13:15:25;;;;;;;3.80;1.30;;;;;;;28.33;36.36;99762.11;109129;1277;22202;-78